Bickley, Georgia
Current Conditions -  °F | °C
As of 4:53 AM on Thursday 27 Nov 2014 (Local Time) from KAMG Reporting Station
Clear Clear  
Wind Chill: 43°   Ceiling: Unl
Heat Index: 43°   Visibility: 10mi
Dew Point: 36°   Wind: 3mph
Humidity: 76%   Direction: 250°WSW
Pressure: 30.17"   Gusts: NA
Location:  31.4253°N, 82.5972°W
Report Text: KAMG 270953Z AUTO 25003KT 10SM CLR 06/02 A3017 RMK AO2 SLP216 T00610022
Loading
Personal Weather Stations






























Interactive Weather Map New forecast layout! Learn more

10-Day Weather Forecast

Advertisements
Track Severe Weather on mobile